Time;durP1;ratioP1;P1;durP2;ratioP2;P2;SDS_P1;SDS_P2;PMS_P1;PMS_P2;Temp;Humidity;BMP_temperature;BMP_pressure;BME280_temperature;BME280_humidity;BME280_pressure;Samples;Min_cycle;Max_cycle;Signal;HPM_P1;HPM_P2
2024/01/04 00:01:21;;;;;;;3.13;1.63;;;;;;;;;;5019229;28;20061;-63
2024/01/04 00:04:14;;;;;;;2.90;1.83;;;;;;;;;;5018366;28;20065;-56
2024/01/04 00:07:08;;;;;;;6.63;1.77;;;;;;;;;;5022773;28;20056;-68
2024/01/04 00:09:55;;;;;;;4.60;1.80;;;;;;;;;;5020304;28;20121;-67
2024/01/04 00:12:51;;;;;;;6.00;2.30;;;;;;;;;;5020700;28;20563;-68
2024/01/04 00:15:36;;;;;;;2.70;1.47;;;;;;;;;;5021342;28;20046;-68
2024/01/04 00:18:30;;;;;;;5.50;2.43;;;;;;;;;;5021258;28;20420;-68
2024/01/04 00:20:58;;;;;;;4.07;1.90;;;;;;;;;;5020989;28;20484;-62
2024/01/04 00:23:25;;;;;;;4.07;1.73;;;;;;;;;;5020793;28;20049;-62
2024/01/04 00:25:59;;;;;;;3.20;1.30;;;;;;;;;;5022588;28;20503;-62
2024/01/04 00:28:26;;;;;;;;;;;;;;;;;;5022121;28;20111;-64
2024/01/04 00:31:00;;;;;;;3.17;1.70;;;;;;;;;;5024687;28;20376;-61
2024/01/04 00:33:27;;;;;;;8.30;2.13;;;;;;;;;;5022167;28;20525;-54
2024/01/04 00:35:55;;;;;;;9.80;2.53;;;;;;;;;;5020330;28;20307;-52
2024/01/04 00:38:29;;;;;;;5.17;1.80;;;;;;;;;;5012581;28;20460;-51
2024/01/04 00:40:56;;;;;;;6.70;1.67;;;;;;;;;;5022766;28;20049;-51
2024/01/04 00:43:30;;;;;;;3.13;1.70;;;;;;;;;;5025765;28;20069;-51
2024/01/04 00:45:57;;;;;;;2.07;1.47;;;;;;;;;;5018768;28;20111;-49
2024/01/04 00:48:24;;;;;;;;;;;;;;;;;;5025639;28;20092;-60
2024/01/04 00:51:01;;;;;;;7.10;2.03;;;;;;;;;;5020944;28;19924;-60
2024/01/04 00:53:28;;;;;;;4.93;1.97;;;;;;;;;;5022115;28;22327;-61
2024/01/04 00:56:02;;;;;;;9.40;1.80;;;;;;;;;;5012820;28;20061;-62
2024/01/04 00:58:30;;;;;;;11.93;1.93;;;;;;;;;;5022656;28;20069;-50
2024/01/04 01:00:57;;;;;;;3.72;1.60;;;;;;;;;;5020325;28;20116;-62
2024/01/04 01:03:31;;;;;;;1.33;1.23;;;;;;;;;;5017382;28;20452;-62
2024/01/04 01:06:05;;;;;;;4.17;1.73;;;;;;;;;;5018594;28;20874;-60
2024/01/04 01:08:39;;;;;;;6.37;2.53;;;;;;;;;;5021345;28;20068;-62
2024/01/04 01:11:13;;;;;;;2.80;1.60;;;;;;;;;;5004608;28;20049;-61
2024/01/04 01:13:47;;;;;;;6.63;1.87;;;;;;;;;;5022812;28;20085;-61
2024/01/04 01:16:21;;;;;;;5.13;1.60;;;;;;;;;;5018264;28;20099;-62
2024/01/04 01:18:48;;;;;;;2.47;1.40;;;;;;;;;;5019299;28;20107;-62
2024/01/04 01:21:16;;;;;;;7.17;1.67;;;;;;;;;;5022232;28;20061;-66
2024/01/04 01:23:50;;;;;;;4.53;1.53;;;;;;;;;;5019768;28;20057;-62
2024/01/04 01:26:17;;;;;;;4.87;1.67;;;;;;;;;;5018886;28;20065;-63
2024/01/04 01:28:51;;;;;;;8.27;2.20;;;;;;;;;;5022976;28;20385;-62
2024/01/04 01:31:18;;;;;;;7.97;1.83;;;;;;;;;;5021620;28;20049;-62
2024/01/04 01:33:45;;;;;;;;;;;;;;;;;;5025647;28;20049;-63
2024/01/04 01:36:19;;;;;;;4.23;2.00;;;;;;;;;;5025943;28;19964;-63
2024/01/04 01:38:46;;;;;;;27.63;2.00;;;;;;;;;;5018417;28;20184;-62
2024/01/04 01:41:14;;;;;;;2.37;1.23;;;;;;;;;;5021777;28;20509;-62
2024/01/04 01:43:48;;;;;;;6.13;1.60;;;;;;;;;;5021468;28;20524;-63
2024/01/04 01:46:15;;;;;;;;;;;;;;;;;;5025346;28;20065;-62
2024/01/04 01:48:49;;;;;;;5.90;1.70;;;;;;;;;;5017100;28;19940;-62
2024/01/04 01:51:16;;;;;;;6.90;1.80;;;;;;;;;;5020392;28;20054;-62
2024/01/04 01:53:44;;;;;;;8.43;1.70;;;;;;;;;;5023838;28;20125;-62
2024/01/04 01:56:18;;;;;;;5.70;1.30;;;;;;;;;;5021023;28;20534;-62
2024/01/04 01:58:47;;;;;;;4.83;1.80;;;;;;;;;;5022975;28;20127;-59
2024/01/04 02:01:53;;;;;;;3.27;1.47;;;;;;;;;;5019831;28;20153;-55
2024/01/04 02:04:40;;;;;;;3.23;1.60;;;;;;;;;;5010113;28;20061;-57
2024/01/04 02:07:40;;;;;;;3.03;1.30;;;;;;;;;;5019695;28;20045;-53
2024/01/04 02:10:28;;;;;;;2.30;1.37;;;;;;;;;;5021217;28;20554;-56
2024/01/04 02:13:22;;;;;;;7.40;1.67;;;;;;;;;;5021024;28;20050;-57
2024/01/04 02:16:09;;;;;;;3.10;1.50;;;;;;;;;;5016759;28;20057;-68
2024/01/04 02:19:04;;;;;;;2.30;1.50;;;;;;;;;;5006905;28;20053;-68
2024/01/04 02:21:58;;;;;;;11.17;1.70;;;;;;;;;;5020696;28;20051;-68
2024/01/04 02:24:46;;;;;;;6.57;1.30;;;;;;;;;;5019134;28;20057;-55
2024/01/04 02:27:46;;;;;;;7.57;1.73;;;;;;;;;;5019950;28;20304;-55
2024/01/04 02:30:34;;;;;;;4.60;1.87;;;;;;;;;;5019881;28;20061;-53
2024/01/04 02:33:34;;;;;;;6.07;2.17;;;;;;;;;;5021343;28;20112;-58
2024/01/04 02:36:22;;;;;;;4.23;2.10;;;;;;;;;;5020898;28;20140;-53
2024/01/04 02:39:16;;;;;;;7.33;2.97;;;;;;;;;;5020561;28;20049;-58
2024/01/04 02:42:03;;;;;;;4.47;1.57;;;;;;;;;;5014829;28;20062;-56
2024/01/04 02:44:57;;;;;;;6.87;2.33;;;;;;;;;;5024816;28;20107;-68
2024/01/04 02:47:51;;;;;;;5.47;2.10;;;;;;;;;;5018556;28;20061;-68
2024/01/04 02:50:38;;;;;;;3.15;1.80;;;;;;;;;;5022709;28;20148;-68
2024/01/04 02:53:32;;;;;;;6.80;2.00;;;;;;;;;;5024311;28;20061;-60
2024/01/04 02:56:19;;;;;;;6.10;2.72;;;;;;;;;;5020187;28;20088;-53
2024/01/04 02:59:13;;;;;;;5.10;2.20;;;;;;;;;;5023119;28;20126;-51
2024/01/04 03:02:00;;;;;;;4.60;2.15;;;;;;;;;;5013826;28;20094;-52
2024/01/04 03:05:01;;;;;;;5.40;1.73;;;;;;;;;;5014146;28;20064;-53
2024/01/04 03:07:54;;;;;;;9.20;2.20;;;;;;;;;;5018860;28;20049;-53
2024/01/04 03:10:48;;;;;;;2.77;1.63;;;;;;;;;;5017461;28;20053;-62
2024/01/04 03:13:35;;;;;;;8.27;1.93;;;;;;;;;;5022095;28;20107;-61
2024/01/04 03:16:30;;;;;;;3.63;1.77;;;;;;;;;;5021547;28;20939;-62
2024/01/04 03:19:16;;;;;;;7.07;2.35;;;;;;;;;;5021420;28;20049;-61
2024/01/04 03:22:10;;;;;;;5.67;2.17;;;;;;;;;;5022332;28;20114;-68
2024/01/04 03:24:57;;;;;;;5.47;2.43;;;;;;;;;;5024004;28;20493;-68
2024/01/04 03:27:51;;;;;;;6.67;2.37;;;;;;;;;;5021505;28;20045;-68
2024/01/04 03:30:38;;;;;;;4.03;2.13;;;;;;;;;;5021551;28;20057;-68
2024/01/04 03:33:32;;;;;;;7.80;2.03;;;;;;;;;;5020372;28;20045;-67
2024/01/04 03:36:33;;;;;;;6.87;2.00;;;;;;;;;;5022473;28;20050;-68
2024/01/04 03:39:20;;;;;;;5.93;2.20;;;;;;;;;;5017322;28;20058;-55
2024/01/04 03:42:15;;;;;;;5.37;2.20;;;;;;;;;;5023839;28;20107;-55
2024/01/04 03:45:01;;;;;;;3.43;2.10;;;;;;;;;;5024057;28;20068;-54
2024/01/04 03:47:55;;;;;;;10.17;2.03;;;;;;;;;;5018572;28;20053;-54
2024/01/04 03:50:42;;;;;;;3.13;2.23;;;;;;;;;;5021175;28;20054;-68
2024/01/04 03:53:36;;;;;;;4.80;2.40;;;;;;;;;;5017161;28;20304;-63
2024/01/04 03:56:30;;;;;;;7.40;2.20;;;;;;;;;;5018744;28;20659;-63
2024/01/04 03:59:17;;;;;;;5.37;2.27;;;;;;;;;;5021145;28;20160;-62
2024/01/04 04:02:12;;;;;;;6.80;2.30;;;;;;;;;;5005961;28;20064;-62
2024/01/04 04:05:05;;;;;;;8.40;2.20;;;;;;;;;;5016764;28;20053;-62
2024/01/04 04:08:06;;;;;;;7.37;2.67;;;;;;;;;;5016445;28;20057;-55
2024/01/04 04:10:53;;;;;;;5.90;1.73;;;;;;;;;;5014624;28;20077;-52
2024/01/04 04:13:47;;;;;;;5.17;2.00;;;;;;;;;;5016938;28;20049;-53
2024/01/04 04:16:39;;;;;;;3.73;1.83;;;;;;;;;;5015257;28;20473;-52
2024/01/04 04:19:33;;;;;;;7.47;2.30;;;;;;;;;;5018078;28;20053;-67
2024/01/04 04:22:20;;;;;;;4.00;1.87;;;;;;;;;;5016454;28;20414;-50
2024/01/04 04:25:14;;;;;;;5.90;2.30;;;;;;;;;;5020447;28;20056;-49
2024/01/04 04:28:01;;;;;;;3.27;2.20;;;;;;;;;;5016973;28;20060;-55
2024/01/04 04:30:55;;;;;;;3.37;1.77;;;;;;;;;;5018970;28;20139;-48
2024/01/04 04:33:49;;;;;;;2.57;1.63;;;;;;;;;;5015281;28;20056;-52
2024/01/04 04:36:43;;;;;;;4.47;2.00;;;;;;;;;;5018265;28;20049;-61
2024/01/04 04:39:30;;;;;;;3.73;2.00;;;;;;;;;;5013664;28;20077;-63
2024/01/04 04:42:24;;;;;;;5.83;2.30;;;;;;;;;;5019713;28;20053;-58
2024/01/04 04:45:11;;;;;;;5.77;2.50;;;;;;;;;;5020546;28;20049;-61
2024/01/04 04:48:05;;;;;;;5.10;2.50;;;;;;;;;;5016596;28;20052;-65
2024/01/04 04:50:54;;;;;;;6.65;2.10;;;;;;;;;;5018498;28;20493;-48
2024/01/04 04:53:47;;;;;;;6.50;2.33;;;;;;;;;;5017799;28;20168;-50
2024/01/04 04:56:34;;;;;;;4.37;2.13;;;;;;;;;;5017857;28;20083;-48
2024/01/04 04:59:28;;;;;;;3.80;2.03;;;;;;;;;;5010863;28;20053;-52
2024/01/04 05:02:15;;;;;;;5.50;1.90;;;;;;;;;;5016855;28;20053;-50
2024/01/04 05:05:22;;;;;;;10.63;2.60;;;;;;;;;;5005303;28;20901;-48
2024/01/04 05:08:16;;;;;;;5.97;2.60;;;;;;;;;;5018224;28;20053;-52
2024/01/04 05:11:10;;;;;;;3.87;2.13;;;;;;;;;;5021574;28;20050;-49
2024/01/04 05:13:57;;;;;;;4.80;1.77;;;;;;;;;;5022307;28;20049;-54
2024/01/04 05:16:51;;;;;;;4.50;2.30;;;;;;;;;;5022459;28;20050;-63
2024/01/04 05:19:38;;;;;;;7.17;2.67;;;;;;;;;;5024549;28;20054;-63
2024/01/04 05:22:32;;;;;;;2.73;1.83;;;;;;;;;;5022479;28;20050;-64
2024/01/04 05:25:19;;;;;;;5.50;2.20;;;;;;;;;;5020529;28;20061;-62
2024/01/04 05:28:13;;;;;;;4.90;2.33;;;;;;;;;;5023060;28;20057;-62
2024/01/04 05:31:00;;;;;;;5.57;2.47;;;;;;;;;;5023157;28;20539;-61
2024/01/04 05:33:54;;;;;;;3.23;2.23;;;;;;;;;;5021009;28;20312;-61
2024/01/04 05:36:42;;;;;;;3.67;2.15;;;;;;;;;;5016946;28;20068;-61
2024/01/04 05:39:36;;;;;;;9.13;2.07;;;;;;;;;;5019986;28;20057;-61
2024/01/04 05:42:30;;;;;;;3.13;1.80;;;;;;;;;;5020055;28;20061;-61
2024/01/04 05:45:24;;;;;;;2.80;2.10;;;;;;;;;;5017845;28;20806;-53
2024/01/04 05:48:11;;;;;;;5.17;1.93;;;;;;;;;;5020450;28;20045;-61
2024/01/04 05:51:05;;;;;;;2.00;1.43;;;;;;;;;;5021917;28;20129;-61
2024/01/04 05:54:09;;;;;;;2.97;2.10;;;;;;;;;;5023562;28;20523;-59
2024/01/04 05:57:03;;;;;;;3.10;1.77;;;;;;;;;;5019579;28;20061;-61
2024/01/04 05:59:50;;;;;;;3.42;1.98;;;;;;;;;;5024647;28;20049;-62
2024/01/04 06:02:46;;;;;;;3.13;1.93;;;;;;;;;;5017310;28;21124;-62
2024/01/04 06:05:38;;;;;;;5.87;2.20;;;;;;;;;;5021413;28;20057;-61
2024/01/04 06:08:32;;;;;;;2.30;1.80;;;;;;;;;;5021096;28;20144;-62
2024/01/04 06:11:19;;;;;;;2.37;1.80;;;;;;;;;;5020373;28;20054;-62
2024/01/04 06:14:13;;;;;;;3.13;1.83;;;;;;;;;;5018221;28;20428;-62
2024/01/04 06:17:00;;;;;;;5.70;2.00;;;;;;;;;;5021672;28;20057;-61
2024/01/04 06:19:54;;;;;;;3.50;1.90;;;;;;;;;;5022082;28;20053;-62
2024/01/04 06:22:41;;;;;;;2.63;1.80;;;;;;;;;;5020240;28;20445;-62
2024/01/04 06:25:35;;;;;;;6.27;2.37;;;;;;;;;;5020671;28;20571;-61
2024/01/04 06:28:29;;;;;;;4.13;2.47;;;;;;;;;;5019646;28;20054;-61
2024/01/04 06:31:23;;;;;;;3.70;2.00;;;;;;;;;;5022661;28;20049;-61
2024/01/04 06:34:10;;;;;;;6.17;2.30;;;;;;;;;;5020282;28;20728;-56
2024/01/04 06:37:04;;;;;;;4.40;2.23;;;;;;;;;;5021553;28;20536;-61
2024/01/04 06:39:51;;;;;;;3.77;2.23;;;;;;;;;;5013684;28;20064;-61
2024/01/04 06:42:53;;;;;;;5.60;2.33;;;;;;;;;;5020210;28;20050;-56
2024/01/04 06:45:32;;;;;;;7.37;2.03;;;;;;;;;;5014425;28;20147;-61
2024/01/04 06:48:27;;;;;;;5.23;2.20;;;;;;;;;;5019026;28;20062;-61
2024/01/04 06:51:13;;;;;;;4.87;1.80;;;;;;;;;;5019435;28;20452;-60
2024/01/04 06:54:07;;;;;;;5.53;2.10;;;;;;;;;;5017041;28;20057;-60
2024/01/04 06:56:54;;;;;;;2.27;1.97;;;;;;;;;;5018668;28;20095;-60
2024/01/04 06:59:48;;;;;;;4.80;2.37;;;;;;;;;;5021462;28;20119;-62
2024/01/04 07:02:36;;;;;;;7.57;1.80;;;;;;;;;;5019044;28;20054;-60
2024/01/04 07:05:37;;;;;;;6.83;2.03;;;;;;;;;;5017861;28;20424;-61
2024/01/04 07:08:38;;;;;;;3.90;2.57;;;;;;;;;;5019579;28;20053;-54
2024/01/04 07:11:25;;;;;;;4.63;2.20;;;;;;;;;;5018844;28;20057;-57
2024/01/04 07:14:19;;;;;;;4.37;1.80;;;;;;;;;;5019437;28;20140;-58
2024/01/04 07:17:08;;;;;;;3.50;2.20;;;;;;;;;;5014514;28;20053;-58
2024/01/04 07:20:00;;;;;;;3.00;1.97;;;;;;;;;;5018534;28;20107;-58
2024/01/04 07:22:53;;;;;;;3.87;2.30;;;;;;;;;;5013548;28;20045;-58
2024/01/04 07:25:46;;;;;;;4.23;2.07;;;;;;;;;;5012200;28;20053;-56
2024/01/04 07:28:33;;;;;;;8.93;2.33;;;;;;;;;;5017547;28;20046;-50
2024/01/04 07:31:27;;;;;;;3.60;2.40;;;;;;;;;;5019241;28;20057;-52
2024/01/04 07:34:14;;;;;;;6.37;2.27;;;;;;;;;;5019320;28;20060;-49
2024/01/04 07:37:11;;;;;;;2.93;1.93;;;;;;;;;;5018310;28;21168;-55
2024/01/04 07:39:58;;;;;;;3.13;2.27;;;;;;;;;;5015336;28;20065;-62
2024/01/04 07:42:52;;;;;;;3.70;2.60;;;;;;;;;;5010921;28;20108;-54
2024/01/04 07:45:39;;;;;;;8.43;2.43;;;;;;;;;;5015124;28;20061;-50
2024/01/04 07:48:33;;;;;;;5.53;2.37;;;;;;;;;;5015591;28;20209;-52
2024/01/04 07:51:24;;;;;;;4.80;2.60;;;;;;;;;;5017880;28;20057;-53
2024/01/04 07:54:18;;;;;;;4.57;2.20;;;;;;;;;;5006570;28;20165;-52
2024/01/04 07:57:17;;;;;;;3.73;2.10;;;;;;;;;;5013012;28;20501;-62
2024/01/04 08:00:05;;;;;;;3.73;2.47;;;;;;;;;;5012754;28;20139;-63
2024/01/04 08:02:59;;;;;;;6.47;2.37;;;;;;;;;;5008212;28;20506;-63
2024/01/04 08:05:54;;;;;;;3.92;2.15;;;;;;;;;;5017167;28;20065;-57
2024/01/04 08:08:54;;;;;;;2.67;2.20;;;;;;;;;;5021056;28;20111;-67
2024/01/04 08:11:42;;;;;;;13.10;4.20;;;;;;;;;;5020958;28;20045;-67
2024/01/04 08:14:39;;;;;;;12.70;2.60;;;;;;;;;;5020148;28;20141;-67
2024/01/04 08:17:33;;;;;;;3.80;2.67;;;;;;;;;;5019139;28;20050;-67
2024/01/04 08:20:21;;;;;;;4.15;2.25;;;;;;;;;;5023882;28;20049;-66
2024/01/04 08:23:14;;;;;;;8.87;2.50;;;;;;;;;;5016071;28;20045;-67
2024/01/04 08:26:10;;;;;;;3.83;2.23;;;;;;;;;;5014005;28;20049;-57
2024/01/04 08:28:56;;;;;;;4.18;2.20;;;;;;;;;;5016430;28;20073;-58
2024/01/04 08:31:50;;;;;;;5.00;2.80;;;;;;;;;;5023156;28;20105;-58
2024/01/04 08:34:37;;;;;;;4.13;2.23;;;;;;;;;;5020403;28;20049;-62
2024/01/04 08:37:31;;;;;;;5.13;2.40;;;;;;;;;;5020639;28;20061;-56
2024/01/04 08:40:18;;;;;;;6.83;2.77;;;;;;;;;;5021568;28;20049;-53
2024/01/04 08:43:13;;;;;;;6.20;2.70;;;;;;;;;;5021872;28;20689;-55
2024/01/04 08:45:59;;;;;;;4.80;2.50;;;;;;;;;;5023259;28;20119;-56
2024/01/04 08:48:53;;;;;;;4.50;2.90;;;;;;;;;;5022933;28;20044;-57
2024/01/04 08:51:47;;;;;;;4.53;2.73;;;;;;;;;;5025207;28;20054;-56
2024/01/04 08:54:42;;;;;;;5.47;2.63;;;;;;;;;;5017226;28;20520;-56
2024/01/04 08:57:35;;;;;;;5.50;2.57;;;;;;;;;;5021371;28;20232;-56
2024/01/04 09:00:30;;;;;;;4.23;2.47;;;;;;;;;;5018038;28;21127;-55
2024/01/04 09:03:19;;;;;;;4.30;2.47;;;;;;;;;;5019766;28;20501;-63
2024/01/04 09:06:00;;;;;;;5.07;2.60;;;;;;;;;;5007611;28;20354;-64
2024/01/04 09:08:47;;;;;;;4.27;2.70;;;;;;;;;;5020030;28;20050;-67
2024/01/04 09:11:42;;;;;;;4.63;2.40;;;;;;;;;;5018472;28;20073;-64
2024/01/04 09:14:30;;;;;;;3.58;2.30;;;;;;;;;;5016363;28;20136;-64
2024/01/04 09:17:25;;;;;;;3.70;2.43;;;;;;;;;;5022269;28;20053;-64
2024/01/04 09:20:13;;;;;;;4.03;2.67;;;;;;;;;;5012655;28;20221;-65
2024/01/04 09:23:06;;;;;;;5.83;2.50;;;;;;;;;;5013950;28;20049;-63
2024/01/04 09:25:53;;;;;;;4.13;2.50;;;;;;;;;;5015682;28;20131;-52
2024/01/04 09:28:47;;;;;;;4.93;2.90;;;;;;;;;;5022893;28;20049;-53
2024/01/04 09:31:34;;;;;;;7.43;2.70;;;;;;;;;;5019345;28;20053;-49
2024/01/04 09:34:29;;;;;;;5.00;2.53;;;;;;;;;;5022523;28;20059;-57
2024/01/04 09:37:16;;;;;;;7.23;2.70;;;;;;;;;;5021777;28;20128;-56
2024/01/04 09:40:10;;;;;;;7.73;2.87;;;;;;;;;;5022416;28;20053;-63
2024/01/04 09:42:58;;;;;;;8.00;2.70;;;;;;;;;;5021277;28;20054;-59
2024/01/04 09:45:54;;;;;;;4.00;2.47;;;;;;;;;;5023566;28;20103;-61
2024/01/04 09:48:42;;;;;;;7.37;2.30;;;;;;;;;;5021572;28;20084;-60
2024/01/04 09:51:38;;;;;;;6.43;2.37;;;;;;;;;;5021940;28;20068;-57
2024/01/04 09:54:25;;;;;;;4.88;2.92;;;;;;;;;;5022551;28;20060;-53
2024/01/04 09:57:18;;;;;;;5.73;2.73;;;;;;;;;;5022878;28;20049;-52
2024/01/04 10:00:06;;;;;;;6.23;2.40;;;;;;;;;;5023988;28;20160;-52
2024/01/04 10:03:01;;;;;;;3.83;2.60;;;;;;;;;;5020847;28;20139;-52
2024/01/04 10:05:56;;;;;;;3.43;2.37;;;;;;;;;;5024260;28;20050;-53
2024/01/04 10:08:54;;;;;;;9.40;3.10;;;;;;;;;;5023810;28;20064;-51
2024/01/04 10:11:42;;;;;;;5.40;2.23;;;;;;;;;;5022386;28;20172;-53
2024/01/04 10:14:36;;;;;;;3.90;2.00;;;;;;;;;;5021036;28;20505;-49
2024/01/04 10:17:23;;;;;;;3.47;1.73;;;;;;;;;;5026462;28;20056;-48
2024/01/04 10:20:17;;;;;;;3.47;2.10;;;;;;;;;;5022108;28;20056;-68
2024/01/04 10:23:06;;;;;;;4.13;2.27;;;;;;;;;;5019647;28;20061;-56
2024/01/04 10:26:08;;;;;;;3.97;2.53;;;;;;;;;;5023395;28;20050;-55
2024/01/04 10:28:59;;;;;;;4.57;3.00;;;;;;;;;;5019755;28;20053;-56
2024/01/04 10:31:58;;;;;;;6.10;2.40;;;;;;;;;;5023588;28;20049;-58
2024/01/04 10:35:03;;;;;;;5.40;2.80;;;;;;;;;;5019492;28;20412;-56
2024/01/04 10:37:39;;;;;;;4.50;2.70;;;;;;;;;;5023297;28;20049;-56
2024/01/04 10:40:26;;;;;;;4.83;2.53;;;;;;;;;;5015341;28;20058;-51
2024/01/04 10:43:20;;;;;;;4.10;2.37;;;;;;;;;;5016059;28;20348;-54
2024/01/04 10:46:08;;;;;;;4.23;2.30;;;;;;;;;;5025344;28;20065;-47
2024/01/04 10:49:02;;;;;;;4.23;2.27;;;;;;;;;;5020206;28;20127;-50
2024/01/04 10:51:51;;;;;;;4.80;2.60;;;;;;;;;;5015779;28;20055;-49
2024/01/04 10:54:29;;;;;;;4.50;2.77;;;;;;;;;;5022453;28;20057;-51
2024/01/04 10:57:17;;;;;;;5.50;2.53;;;;;;;;;;5019525;28;20468;-50
2024/01/04 11:00:12;;;;;;;6.67;3.00;;;;;;;;;;5021197;28;20770;-60
2024/01/04 11:03:01;;;;;;;3.63;2.60;;;;;;;;;;5017626;28;20046;-58
2024/01/04 11:06:04;;;;;;;4.27;2.60;;;;;;;;;;5019966;28;20456;-63
2024/01/04 11:08:51;;;;;;;5.87;2.87;;;;;;;;;;5020869;28;20054;-59
2024/01/04 11:11:45;;;;;;;7.03;2.50;;;;;;;;;;5017294;28;20137;-61
2024/01/04 11:14:33;;;;;;;4.75;2.60;;;;;;;;;;5021613;28;20080;-60
2024/01/04 11:17:35;;;;;;;6.53;2.10;;;;;;;;;;5016743;28;20061;-61
2024/01/04 11:20:40;;;;;;;4.70;2.80;;;;;;;;;;5017595;28;20049;-61
2024/01/04 11:23:37;;;;;;;2.80;2.03;;;;;;;;;;5020054;28;20080;-62
2024/01/04 11:26:27;;;;;;;4.33;2.50;;;;;;;;;;5022969;28;20131;-62
2024/01/04 11:29:21;;;;;;;5.73;2.67;;;;;;;;;;5019244;28;20068;-63
2024/01/04 11:32:09;;;;;;;7.93;2.50;;;;;;;;;;5014458;28;20072;-57
2024/01/04 11:35:03;;;;;;;4.80;2.70;;;;;;;;;;5018346;28;20045;-56
2024/01/04 11:38:08;;;;;;;4.40;2.33;;;;;;;;;;5018014;28;20060;-60
2024/01/04 11:41:10;;;;;;;4.27;2.40;;;;;;;;;;5015740;28;20976;-60
2024/01/04 11:44:15;;;;;;;3.60;2.40;;;;;;;;;;5016377;28;20505;-60
2024/01/04 11:47:14;;;;;;;7.20;2.93;;;;;;;;;;5018558;28;20144;-59
2024/01/04 11:49:59;;;;;;;6.03;2.40;;;;;;;;;;5016317;28;20053;-53
2024/01/04 11:53:03;;;;;;;7.03;2.90;;;;;;;;;;5016446;28;20065;-48
2024/01/04 11:55:50;;;;;;;4.17;2.50;;;;;;;;;;5015491;28;20574;-49
2024/01/04 11:58:44;;;;;;;5.23;2.93;;;;;;;;;;5016472;28;20088;-49
2024/01/04 12:01:32;;;;;;;5.10;2.65;;;;;;;;;;5015928;28;20083;-49
2024/01/04 12:04:26;;;;;;;4.13;2.60;;;;;;;;;;5016012;28;20127;-47
2024/01/04 12:07:20;;;;;;;5.30;2.67;;;;;;;;;;5010043;28;20053;-50
2024/01/04 12:10:15;;;;;;;3.43;2.43;;;;;;;;;;5017012;28;20049;-62
2024/01/04 12:13:02;;;;;;;6.95;3.10;;;;;;;;;;5008316;28;20057;-68
2024/01/04 12:15:57;;;;;;;6.13;2.87;;;;;;;;;;5016350;28;20053;-69
2024/01/04 12:18:45;;;;;;;6.40;2.67;;;;;;;;;;5018490;28;20128;-69
2024/01/04 12:21:39;;;;;;;4.47;2.40;;;;;;;;;;5014934;28;20056;-69
2024/01/04 12:24:27;;;;;;;5.18;3.03;;;;;;;;;;5001217;28;20050;-68
2024/01/04 12:27:21;;;;;;;4.90;2.70;;;;;;;;;;5018158;28;20397;-63
2024/01/04 12:30:08;;;;;;;4.07;2.50;;;;;;;;;;5021733;28;20529;-61
2024/01/04 12:33:02;;;;;;;7.73;3.20;;;;;;;;;;5014965;28;20062;-62
2024/01/04 12:35:56;;;;;;;4.97;2.70;;;;;;;;;;5016252;28;20055;-62
2024/01/04 12:38:54;;;;;;;5.63;2.87;;;;;;;;;;5020258;28;20053;-61
2024/01/04 12:41:46;;;;;;;5.23;2.90;;;;;;;;;;5022837;28;20065;-62
2024/01/04 12:44:39;;;;;;;5.90;2.87;;;;;;;;;;5020776;28;20048;-69
2024/01/04 12:47:29;;;;;;;3.73;2.53;;;;;;;;;;5022155;28;20065;-59
2024/01/04 12:50:20;;;;;;;5.27;3.00;;;;;;;;;;5019702;28;20818;-51
2024/01/04 12:53:08;;;;;;;5.33;3.10;;;;;;;;;;5016997;28;20080;-56
2024/01/04 15:12:55;;;;;;;6.23;3.20;;;;;;;;;;4981655;28;20493;-58
2024/01/04 15:15:30;;;;;;;4.20;2.70;;;;;;;;;;4980333;28;20065;-62
2024/01/04 15:18:06;;;;;;;6.33;3.10;;;;;;;;;;4983205;28;20050;-62
2024/01/04 15:20:43;;;;;;;6.43;2.90;;;;;;;;;;4980912;28;20081;-63
2024/01/04 15:23:11;;;;;;;6.47;2.97;;;;;;;;;;4983989;28;20050;-62
2024/01/04 15:25:40;;;;;;;5.20;2.90;;;;;;;;;;4983416;28;20050;-63
2024/01/04 15:28:14;;;;;;;5.47;3.23;;;;;;;;;;4983762;28;20054;-62
2024/01/04 15:30:41;;;;;;;6.10;3.13;;;;;;;;;;4981820;28;20042;-63
2024/01/04 15:33:09;;;;;;;5.17;3.07;;;;;;;;;;4980013;28;20062;-62
2024/01/04 15:35:43;;;;;;;4.70;3.03;;;;;;;;;;4981281;28;20065;-62
2024/01/04 15:38:11;;;;;;;4.30;2.50;;;;;;;;;;4980348;28;20054;-68
2024/01/04 15:40:46;;;;;;;4.60;3.10;;;;;;;;;;4980564;28;20068;-60
2024/01/04 15:43:13;;;;;;;5.50;2.90;;;;;;;;;;4983864;28;20073;-62
2024/01/04 15:45:42;;;;;;;5.80;2.97;;;;;;;;;;4983506;28;20112;-61
2024/01/04 15:48:16;;;;;;;7.73;3.47;;;;;;;;;;4979755;28;20050;-61
2024/01/04 15:50:45;;;;;;;7.33;2.40;;;;;;;;;;4982515;28;20050;-61
2024/01/04 15:53:12;;;;;;;5.60;2.90;;;;;;;;;;4981835;28;20422;-61
2024/01/04 15:55:46;;;;;;;7.70;3.30;;;;;;;;;;4980733;28;20053;-49
2024/01/04 15:58:40;;;;;;;7.83;3.10;;;;;;;;;;4980587;28;20290;-51
2024/01/04 16:01:27;;;;;;;6.57;2.88;;;;;;;;;;4977761;28;20530;-50
2024/01/04 16:04:21;;;;;;;3.03;2.10;;;;;;;;;;4982594;28;20055;-63
2024/01/04 16:07:08;;;;;;;5.18;2.95;;;;;;;;;;4982644;28;20066;-63
2024/01/04 16:10:03;;;;;;;3.90;2.70;;;;;;;;;;4973828;28;20502;-63
2024/01/04 16:12:56;;;;;;;8.83;3.37;;;;;;;;;;4979841;28;20502;-62
2024/01/04 16:15:51;;;;;;;6.37;2.97;;;;;;;;;;4976532;28;20581;-63
2024/01/04 16:18:39;;;;;;;5.03;2.67;;;;;;;;;;4980667;28;20046;-62
2024/01/04 16:21:33;;;;;;;6.57;3.00;;;;;;;;;;4981762;28;20205;-63
2024/01/04 16:24:21;;;;;;;7.63;3.38;;;;;;;;;;4976003;28;20115;-61
2024/01/04 16:27:14;;;;;;;5.73;3.47;;;;;;;;;;4980380;28;20506;-56
2024/01/04 16:30:03;;;;;;;6.37;3.07;;;;;;;;;;4975591;28;20054;-58
2024/01/04 16:32:55;;;;;;;4.97;2.80;;;;;;;;;;4982241;28;20062;-53
2024/01/04 16:35:43;;;;;;;6.25;3.22;;;;;;;;;;4979522;28;20941;-56
2024/01/04 16:38:38;;;;;;;6.77;2.83;;;;;;;;;;4973811;28;20055;-55
2024/01/04 16:41:31;;;;;;;5.03;3.10;;;;;;;;;;4981485;28;20425;-59
2024/01/04 16:44:18;;;;;;;8.17;2.83;;;;;;;;;;4980065;28;20619;-56
2024/01/04 16:47:14;;;;;;;6.30;3.37;;;;;;;;;;4976178;28;20057;-57
2024/01/04 16:50:00;;;;;;;4.95;2.05;;;;;;;;;;4977997;28;20054;-54
2024/01/04 16:52:53;;;;;;;11.60;3.80;;;;;;;;;;4976915;28;20059;-53
2024/01/04 16:55:40;;;;;;;5.93;2.80;;;;;;;;;;4978479;28;20050;-57
2024/01/04 16:58:34;;;;;;;6.63;3.00;;;;;;;;;;4980197;28;20057;-55
2024/01/04 17:01:21;;;;;;;7.00;3.37;;;;;;;;;;4979153;28;20141;-61
2024/01/04 17:04:15;;;;;;;7.80;3.13;;;;;;;;;;4981787;28;20055;-51
2024/01/04 17:07:02;;;;;;;3.92;2.50;;;;;;;;;;4981335;28;20228;-56
2024/01/04 17:09:56;;;;;;;7.03;3.33;;;;;;;;;;4981529;28;20730;-54
2024/01/04 17:12:51;;;;;;;6.03;3.03;;;;;;;;;;4970801;28;20058;-51
2024/01/04 17:15:46;;;;;;;6.13;3.43;;;;;;;;;;4961594;28;20470;-57
2024/01/04 17:18:33;;;;;;;8.90;3.00;;;;;;;;;;4955374;28;20055;-51
2024/01/04 17:21:26;;;;;;;5.13;3.03;;;;;;;;;;4961132;28;20738;-56
2024/01/04 17:24:13;;;;;;;8.73;3.30;;;;;;;;;;4955591;28;20082;-58
2024/01/04 17:27:07;;;;;;;7.70;3.30;;;;;;;;;;4962824;28;20118;-60
2024/01/04 17:29:54;;;;;;;4.37;2.90;;;;;;;;;;4962429;28;20153;-56
2024/01/04 17:32:50;;;;;;;6.20;3.20;;;;;;;;;;4961654;28;21085;-59
2024/01/04 17:35:37;;;;;;;5.75;3.10;;;;;;;;;;4960021;28;20154;-58
2024/01/04 17:38:51;;;;;;;5.50;2.63;;;;;;;;;;4959782;28;20046;-63
2024/01/04 17:41:40;;;;;;;7.23;3.27;;;;;;;;;;4964805;28;20058;-59
2024/01/04 17:44:32;;;;;;;10.07;3.13;;;;;;;;;;4959326;28;20530;-59
2024/01/04 17:47:19;;;;;;;8.30;4.00;;;;;;;;;;4960145;28;20611;-61
2024/01/04 17:50:13;;;;;;;5.73;3.17;;;;;;;;;;4961276;28;20141;-61
2024/01/04 17:53:00;;;;;;;7.50;3.70;;;;;;;;;;4962137;28;20054;-61
2024/01/04 17:55:54;;;;;;;6.43;3.70;;;;;;;;;;4962196;28;20059;-59
2024/01/04 17:58:48;;;;;;;8.90;3.70;;;;;;;;;;4957778;28;20525;-68
2024/01/04 18:01:35;;;;;;;13.00;4.40;;;;;;;;;;4957138;28;20953;-69
2024/01/04 18:04:29;;;;;;;9.83;4.50;;;;;;;;;;4956467;28;20119;-69
2024/01/04 18:07:18;;;;;;;7.53;3.92;;;;;;;;;;4955902;28;20055;-69
2024/01/04 18:10:10;;;;;;;8.33;4.37;;;;;;;;;;4953073;28;20054;-68
2024/01/04 18:13:04;;;;;;;7.93;4.17;;;;;;;;;;4974834;28;20050;-56
2024/01/04 18:15:57;;;;;;;6.20;4.00;;;;;;;;;;4974165;28;20058;-69
2024/01/04 18:18:44;;;;;;;8.23;4.10;;;;;;;;;;4973118;28;20101;-69
2024/01/04 18:21:38;;;;;;;8.40;4.13;;;;;;;;;;4974060;28;20502;-69
2024/01/04 18:24:26;;;;;;;7.57;3.67;;;;;;;;;;4982042;28;20247;-69
2024/01/04 18:27:19;;;;;;;7.03;3.80;;;;;;;;;;4981832;28;20073;-69
2024/01/04 18:30:07;;;;;;;8.68;4.50;;;;;;;;;;4976648;28;20467;-69
2024/01/04 18:33:03;;;;;;;5.87;3.43;;;;;;;;;;4980344;28;20061;-61
2024/01/04 18:35:51;;;;;;;7.60;3.90;;;;;;;;;;4978003;28;20054;-62
2024/01/04 18:38:45;;;;;;;7.00;3.80;;;;;;;;;;4979230;28;20182;-63
2024/01/04 18:41:33;;;;;;;7.10;3.70;;;;;;;;;;4978976;28;20226;-63
2024/01/04 18:44:26;;;;;;;10.30;3.90;;;;;;;;;;4981136;28;20577;-61
2024/01/04 18:47:14;;;;;;;6.80;3.38;;;;;;;;;;4979932;28;20455;-60
2024/01/04 18:50:07;;;;;;;7.00;4.13;;;;;;;;;;4978885;28;20101;-53
2024/01/04 18:53:01;;;;;;;8.50;4.20;;;;;;;;;;4982588;28;20117;-60
2024/01/04 18:55:48;;;;;;;7.97;3.83;;;;;;;;;;4982241;28;20812;-59
2024/01/04 18:58:42;;;;;;;8.27;4.20;;;;;;;;;;4980088;28;20541;-60
2024/01/04 19:01:29;;;;;;;8.87;4.40;;;;;;;;;;4978001;28;20623;-62
2024/01/04 19:04:23;;;;;;;7.33;4.40;;;;;;;;;;4983264;28;20051;-61
2024/01/04 19:07:10;;;;;;;6.40;3.17;;;;;;;;;;4984324;28;20157;-62